sensor_id;sensor_type;location;lat;lon;timestamp;temperature;humidity
28177;DHT22;15461;41.652;9.378;2023-07-09T00:01:39;24.00;99.90
28177;DHT22;15461;41.652;9.378;2023-07-09T00:04:05;24.00;99.90
28177;DHT22;15461;41.652;9.378;2023-07-09T00:06:30;24.00;99.90
28177;DHT22;15461;41.652;9.378;2023-07-09T00:08:56;23.90;99.90
28177;DHT22;15461;41.652;9.378;2023-07-09T00:11:22;23.90;99.90
28177;DHT22;15461;41.652;9.378;2023-07-09T00:13:48;23.90;99.90
28177;DHT22;15461;41.652;9.378;2023-07-09T00:16:16;23.90;99.90
28177;DHT22;15461;41.652;9.378;2023-07-09T00:18:44;23.90;99.90
28177;DHT22;15461;41.652;9.378;2023-07-09T00:21:10;23.90;99.90
28177;DHT22;15461;41.652;9.378;2023-07-09T00:23:36;23.90;99.90
28177;DHT22;15461;41.652;9.378;2023-07-09T00:26:10;23.90;99.90
28177;DHT22;15461;41.652;9.378;2023-07-09T00:28:43;23.80;99.90
28177;DHT22;15461;41.652;9.378;2023-07-09T00:31:14;23.80;99.90
28177;DHT22;15461;41.652;9.378;2023-07-09T00:33:41;23.80;99.90
28177;DHT22;15461;41.652;9.378;2023-07-09T00:36:30;23.80;99.90
28177;DHT22;15461;41.652;9.378;2023-07-09T00:39:00;23.70;99.90
28177;DHT22;15461;41.652;9.378;2023-07-09T00:41:35;23.70;99.90
28177;DHT22;15461;41.652;9.378;2023-07-09T00:44:25;23.80;99.90
28177;DHT22;15461;41.652;9.378;2023-07-09T00:49:39;23.80;99.90
28177;DHT22;15461;41.652;9.378;2023-07-09T00:52:38;23.70;99.90
28177;DHT22;15461;41.652;9.378;2023-07-09T00:55:10;23.70;99.90
28177;DHT22;15461;41.652;9.378;2023-07-09T00:57:40;23.80;99.90
28177;DHT22;15461;41.652;9.378;2023-07-09T01:00:11;23.80;99.90
28177;DHT22;15461;41.652;9.378;2023-07-09T01:02:40;23.70;99.90
28177;DHT22;15461;41.652;9.378;2023-07-09T01:05:11;23.70;99.90
28177;DHT22;15461;41.652;9.378;2023-07-09T01:07:38;23.80;99.90
28177;DHT22;15461;41.652;9.378;2023-07-09T01:10:05;23.70;99.90
28177;DHT22;15461;41.652;9.378;2023-07-09T01:12:31;23.70;99.90
28177;DHT22;15461;41.652;9.378;2023-07-09T01:14:58;23.70;99.90
28177;DHT22;15461;41.652;9.378;2023-07-09T01:17:29;23.70;99.90
28177;DHT22;15461;41.652;9.378;2023-07-09T01:19:56;23.60;99.90
28177;DHT22;15461;41.652;9.378;2023-07-09T01:22:22;23.60;99.90
28177;DHT22;15461;41.652;9.378;2023-07-09T01:24:59;23.50;99.90
28177;DHT22;15461;41.652;9.378;2023-07-09T01:27:31;23.60;99.90
28177;DHT22;15461;41.652;9.378;2023-07-09T01:30:01;23.50;99.90
28177;DHT22;15461;41.652;9.378;2023-07-09T01:32:27;23.50;99.90
28177;DHT22;15461;41.652;9.378;2023-07-09T01:34:59;23.50;99.90
28177;DHT22;15461;41.652;9.378;2023-07-09T01:37:31;23.50;99.90
28177;DHT22;15461;41.652;9.378;2023-07-09T01:39:57;23.50;99.90
28177;DHT22;15461;41.652;9.378;2023-07-09T01:42:25;23.40;99.90
28177;DHT22;15461;41.652;9.378;2023-07-09T01:44:53;23.40;99.90
28177;DHT22;15461;41.652;9.378;2023-07-09T01:47:20;23.40;99.90
28177;DHT22;15461;41.652;9.378;2023-07-09T01:49:45;23.40;99.90
28177;DHT22;15461;41.652;9.378;2023-07-09T01:52:14;23.30;99.90
28177;DHT22;15461;41.652;9.378;2023-07-09T01:54:42;23.30;99.90
28177;DHT22;15461;41.652;9.378;2023-07-09T01:59:42;23.20;99.90
28177;DHT22;15461;41.652;9.378;2023-07-09T02:02:10;23.20;99.90
28177;DHT22;15461;41.652;9.378;2023-07-09T02:04:49;23.20;99.90
28177;DHT22;15461;41.652;9.378;2023-07-09T02:07:15;23.20;99.90
28177;DHT22;15461;41.652;9.378;2023-07-09T02:09:42;23.20;99.90
28177;DHT22;15461;41.652;9.378;2023-07-09T02:12:08;23.10;99.90
28177;DHT22;15461;41.652;9.378;2023-07-09T02:14:35;23.10;99.90
28177;DHT22;15461;41.652;9.378;2023-07-09T02:17:01;23.10;99.90
28177;DHT22;15461;41.652;9.378;2023-07-09T02:19:29;23.10;99.90
28177;DHT22;15461;41.652;9.378;2023-07-09T02:21:55;23.10;99.90
28177;DHT22;15461;41.652;9.378;2023-07-09T02:24:22;23.10;99.90
28177;DHT22;15461;41.652;9.378;2023-07-09T02:26:58;23.10;99.90
28177;DHT22;15461;41.652;9.378;2023-07-09T02:29:25;23.10;99.90
28177;DHT22;15461;41.652;9.378;2023-07-09T02:31:52;23.10;99.90
28177;DHT22;15461;41.652;9.378;2023-07-09T02:34:19;23.10;99.90
28177;DHT22;15461;41.652;9.378;2023-07-09T02:36:45;23.10;99.90
28177;DHT22;15461;41.652;9.378;2023-07-09T02:39:12;23.20;99.90
28177;DHT22;15461;41.652;9.378;2023-07-09T02:41:42;23.20;99.90
28177;DHT22;15461;41.652;9.378;2023-07-09T02:44:08;23.20;99.90
28177;DHT22;15461;41.652;9.378;2023-07-09T02:46:35;23.20;99.90
28177;DHT22;15461;41.652;9.378;2023-07-09T02:49:04;23.20;99.90
28177;DHT22;15461;41.652;9.378;2023-07-09T02:51:31;23.20;99.90
28177;DHT22;15461;41.652;9.378;2023-07-09T02:54:00;23.20;99.90
28177;DHT22;15461;41.652;9.378;2023-07-09T02:56:26;23.20;99.90
28177;DHT22;15461;41.652;9.378;2023-07-09T02:58:53;23.20;99.90
28177;DHT22;15461;41.652;9.378;2023-07-09T03:01:18;23.20;99.90
28177;DHT22;15461;41.652;9.378;2023-07-09T03:03:52;23.20;99.90
28177;DHT22;15461;41.652;9.378;2023-07-09T03:06:20;23.10;99.90
28177;DHT22;15461;41.652;9.378;2023-07-09T03:08:46;23.10;99.90
28177;DHT22;15461;41.652;9.378;2023-07-09T03:11:13;23.10;99.90
28177;DHT22;15461;41.652;9.378;2023-07-09T03:13:39;23.10;99.90
28177;DHT22;15461;41.652;9.378;2023-07-09T03:16:05;23.00;99.90
28177;DHT22;15461;41.652;9.378;2023-07-09T03:18:32;23.00;99.90
28177;DHT22;15461;41.652;9.378;2023-07-09T03:20:58;23.00;99.90
28177;DHT22;15461;41.652;9.378;2023-07-09T03:23:24;23.00;99.90
28177;DHT22;15461;41.652;9.378;2023-07-09T03:25:49;22.90;99.90
28177;DHT22;15461;41.652;9.378;2023-07-09T03:28:15;22.90;99.90
28177;DHT22;15461;41.652;9.378;2023-07-09T03:30:43;22.90;99.90
28177;DHT22;15461;41.652;9.378;2023-07-09T03:33:13;22.80;99.90
28177;DHT22;15461;41.652;9.378;2023-07-09T03:35:39;22.80;99.90
28177;DHT22;15461;41.652;9.378;2023-07-09T03:38:06;22.70;99.90
28177;DHT22;15461;41.652;9.378;2023-07-09T03:40:32;22.70;99.90
28177;DHT22;15461;41.652;9.378;2023-07-09T03:42:58;22.70;99.90
28177;DHT22;15461;41.652;9.378;2023-07-09T03:45:24;22.70;99.90
28177;DHT22;15461;41.652;9.378;2023-07-09T03:47:50;22.70;99.90
28177;DHT22;15461;41.652;9.378;2023-07-09T03:50:16;22.70;99.90
28177;DHT22;15461;41.652;9.378;2023-07-09T03:52:42;22.60;99.90
28177;DHT22;15461;41.652;9.378;2023-07-09T03:55:08;22.50;99.90
28177;DHT22;15461;41.652;9.378;2023-07-09T03:57:34;22.50;99.90
28177;DHT22;15461;41.652;9.378;2023-07-09T04:00:02;22.50;99.90
28177;DHT22;15461;41.652;9.378;2023-07-09T04:02:41;22.50;99.90
28177;DHT22;15461;41.652;9.378;2023-07-09T04:05:09;22.50;99.90
28177;DHT22;15461;41.652;9.378;2023-07-09T04:07:36;22.50;99.90
28177;DHT22;15461;41.652;9.378;2023-07-09T04:10:02;22.50;99.90
28177;DHT22;15461;41.652;9.378;2023-07-09T04:12:28;22.50;99.90
28177;DHT22;15461;41.652;9.378;2023-07-09T04:14:54;22.50;99.90
28177;DHT22;15461;41.652;9.378;2023-07-09T04:17:19;22.50;99.90
28177;DHT22;15461;41.652;9.378;2023-07-09T04:19:47;22.50;99.90
28177;DHT22;15461;41.652;9.378;2023-07-09T04:22:13;22.50;99.90
28177;DHT22;15461;41.652;9.378;2023-07-09T04:24:39;22.50;99.90
28177;DHT22;15461;41.652;9.378;2023-07-09T04:27:05;22.50;99.90
28177;DHT22;15461;41.652;9.378;2023-07-09T04:29:31;22.50;99.90
28177;DHT22;15461;41.652;9.378;2023-07-09T04:31:59;22.50;99.90
28177;DHT22;15461;41.652;9.378;2023-07-09T04:34:25;22.50;99.90
28177;DHT22;15461;41.652;9.378;2023-07-09T04:36:51;22.60;99.90
28177;DHT22;15461;41.652;9.378;2023-07-09T04:39:17;22.50;99.90
28177;DHT22;15461;41.652;9.378;2023-07-09T04:41:43;22.60;99.90
28177;DHT22;15461;41.652;9.378;2023-07-09T04:44:08;22.60;99.90
28177;DHT22;15461;41.652;9.378;2023-07-09T04:46:34;22.70;99.90
28177;DHT22;15461;41.652;9.378;2023-07-09T04:49:00;22.70;99.90
28177;DHT22;15461;41.652;9.378;2023-07-09T04:51:26;22.80;99.90
28177;DHT22;15461;41.652;9.378;2023-07-09T04:53:52;22.80;99.90
28177;DHT22;15461;41.652;9.378;2023-07-09T04:56:18;22.90;99.90
28177;DHT22;15461;41.652;9.378;2023-07-09T04:58:44;22.90;99.90
28177;DHT22;15461;41.652;9.378;2023-07-09T05:01:10;22.90;99.90
28177;DHT22;15461;41.652;9.378;2023-07-09T05:03:36;23.00;99.90
28177;DHT22;15461;41.652;9.378;2023-07-09T05:06:03;23.10;99.90
28177;DHT22;15461;41.652;9.378;2023-07-09T05:08:29;23.10;99.90
28177;DHT22;15461;41.652;9.378;2023-07-09T05:10:56;23.30;99.90
28177;DHT22;15461;41.652;9.378;2023-07-09T05:13:24;23.30;99.90
28177;DHT22;15461;41.652;9.378;2023-07-09T05:15:50;23.40;99.90
28177;DHT22;15461;41.652;9.378;2023-07-09T05:18:17;23.60;99.90
28177;DHT22;15461;41.652;9.378;2023-07-09T05:20:43;23.60;99.90
28177;DHT22;15461;41.652;9.378;2023-07-09T05:23:10;23.60;99.90
28177;DHT22;15461;41.652;9.378;2023-07-09T05:25:36;23.60;99.90
28177;DHT22;15461;41.652;9.378;2023-07-09T05:28:03;23.70;99.90
28177;DHT22;15461;41.652;9.378;2023-07-09T05:30:29;23.70;99.90
28177;DHT22;15461;41.652;9.378;2023-07-09T05:32:55;23.70;99.90
28177;DHT22;15461;41.652;9.378;2023-07-09T05:35:25;23.70;99.90
28177;DHT22;15461;41.652;9.378;2023-07-09T05:37:52;23.80;99.90
28177;DHT22;15461;41.652;9.378;2023-07-09T05:40:18;23.90;99.90
28177;DHT22;15461;41.652;9.378;2023-07-09T05:42:44;24.10;99.90
28177;DHT22;15461;41.652;9.378;2023-07-09T05:45:10;24.20;99.90
28177;DHT22;15461;41.652;9.378;2023-07-09T05:47:36;24.30;99.90
28177;DHT22;15461;41.652;9.378;2023-07-09T05:50:03;24.40;99.90
28177;DHT22;15461;41.652;9.378;2023-07-09T05:52:29;24.50;99.90
28177;DHT22;15461;41.652;9.378;2023-07-09T05:54:55;24.60;99.90
28177;DHT22;15461;41.652;9.378;2023-07-09T05:57:21;24.80;99.90
28177;DHT22;15461;41.652;9.378;2023-07-09T05:59:48;24.80;99.90
28177;DHT22;15461;41.652;9.378;2023-07-09T06:02:19;25.00;99.90
28177;DHT22;15461;41.652;9.378;2023-07-09T06:04:46;25.10;99.90
28177;DHT22;15461;41.652;9.378;2023-07-09T06:07:14;25.20;99.90
28177;DHT22;15461;41.652;9.378;2023-07-09T06:09:40;25.40;99.90
28177;DHT22;15461;41.652;9.378;2023-07-09T06:12:06;25.50;99.90
28177;DHT22;15461;41.652;9.378;2023-07-09T06:14:33;25.70;99.90
28177;DHT22;15461;41.652;9.378;2023-07-09T06:16:59;25.80;99.90
28177;DHT22;15461;41.652;9.378;2023-07-09T06:19:25;25.90;99.90
28177;DHT22;15461;41.652;9.378;2023-07-09T06:21:51;26.10;99.90
28177;DHT22;15461;41.652;9.378;2023-07-09T06:24:17;26.10;99.90
28177;DHT22;15461;41.652;9.378;2023-07-09T06:26:43;26.20;99.90
28177;DHT22;15461;41.652;9.378;2023-07-09T06:29:09;26.30;99.90
28177;DHT22;15461;41.652;9.378;2023-07-09T06:31:35;26.40;99.90
28177;DHT22;15461;41.652;9.378;2023-07-09T06:34:03;26.50;99.90
28177;DHT22;15461;41.652;9.378;2023-07-09T06:36:29;26.70;99.90
28177;DHT22;15461;41.652;9.378;2023-07-09T06:38:55;26.80;99.90
28177;DHT22;15461;41.652;9.378;2023-07-09T06:41:21;26.90;99.90
28177;DHT22;15461;41.652;9.378;2023-07-09T06:43:47;27.00;99.90
28177;DHT22;15461;41.652;9.378;2023-07-09T06:46:14;27.10;99.90
28177;DHT22;15461;41.652;9.378;2023-07-09T06:48:40;27.20;99.90
28177;DHT22;15461;41.652;9.378;2023-07-09T06:51:06;27.20;99.90
28177;DHT22;15461;41.652;9.378;2023-07-09T06:53:33;27.40;99.90
28177;DHT22;15461;41.652;9.378;2023-07-09T06:56:02;27.50;99.90
28177;DHT22;15461;41.652;9.378;2023-07-09T06:58:30;27.70;99.90
28177;DHT22;15461;41.652;9.378;2023-07-09T07:00:57;27.70;99.90
28177;DHT22;15461;41.652;9.378;2023-07-09T07:03:23;27.70;99.90
28177;DHT22;15461;41.652;9.378;2023-07-09T07:05:52;27.90;99.90
28177;DHT22;15461;41.652;9.378;2023-07-09T07:08:22;28.00;99.90
28177;DHT22;15461;41.652;9.378;2023-07-09T07:10:50;28.00;99.90
28177;DHT22;15461;41.652;9.378;2023-07-09T07:13:16;28.10;99.90
28177;DHT22;15461;41.652;9.378;2023-07-09T07:15:47;28.10;99.90
28177;DHT22;15461;41.652;9.378;2023-07-09T07:18:13;28.20;99.90
28177;DHT22;15461;41.652;9.378;2023-07-09T07:20:39;28.10;99.90
28177;DHT22;15461;41.652;9.378;2023-07-09T07:23:05;28.20;99.90
28177;DHT22;15461;41.652;9.378;2023-07-09T07:25:32;28.40;99.90
28177;DHT22;15461;41.652;9.378;2023-07-09T07:27:58;28.50;99.90
28177;DHT22;15461;41.652;9.378;2023-07-09T07:30:24;28.50;99.90
28177;DHT22;15461;41.652;9.378;2023-07-09T07:32:49;28.60;99.90
28177;DHT22;15461;41.652;9.378;2023-07-09T07:35:16;28.70;99.90
28177;DHT22;15461;41.652;9.378;2023-07-09T07:37:43;28.50;99.90
28177;DHT22;15461;41.652;9.378;2023-07-09T07:40:09;28.60;99.90
28177;DHT22;15461;41.652;9.378;2023-07-09T07:42:36;28.60;99.90
28177;DHT22;15461;41.652;9.378;2023-07-09T07:45:02;28.70;99.90
28177;DHT22;15461;41.652;9.378;2023-07-09T07:47:29;28.90;99.90
28177;DHT22;15461;41.652;9.378;2023-07-09T07:49:56;29.00;99.90
28177;DHT22;15461;41.652;9.378;2023-07-09T07:52:22;29.10;99.90
28177;DHT22;15461;41.652;9.378;2023-07-09T07:54:49;29.00;99.90
28177;DHT22;15461;41.652;9.378;2023-07-09T07:57:16;29.10;99.90
28177;DHT22;15461;41.652;9.378;2023-07-09T07:59:41;29.10;99.90
28177;DHT22;15461;41.652;9.378;2023-07-09T08:02:12;29.10;99.90
28177;DHT22;15461;41.652;9.378;2023-07-09T08:04:39;29.10;99.90
28177;DHT22;15461;41.652;9.378;2023-07-09T08:07:09;29.20;99.90
28177;DHT22;15461;41.652;9.378;2023-07-09T08:09:35;29.30;99.90
28177;DHT22;15461;41.652;9.378;2023-07-09T08:12:02;29.50;99.90
28177;DHT22;15461;41.652;9.378;2023-07-09T08:14:37;29.50;99.90
28177;DHT22;15461;41.652;9.378;2023-07-09T08:17:04;29.40;99.90
28177;DHT22;15461;41.652;9.378;2023-07-09T08:19:30;29.30;99.90
28177;DHT22;15461;41.652;9.378;2023-07-09T08:21:56;29.40;99.90
28177;DHT22;15461;41.652;9.378;2023-07-09T08:24:22;29.40;99.90
28177;DHT22;15461;41.652;9.378;2023-07-09T08:26:48;29.30;99.90
28177;DHT22;15461;41.652;9.378;2023-07-09T08:29:14;29.30;99.90
28177;DHT22;15461;41.652;9.378;2023-07-09T08:31:39;29.30;99.90
28177;DHT22;15461;41.652;9.378;2023-07-09T08:34:07;29.40;99.90
28177;DHT22;15461;41.652;9.378;2023-07-09T08:36:33;29.50;99.90
28177;DHT22;15461;41.652;9.378;2023-07-09T08:39:01;29.70;99.90
28177;DHT22;15461;41.652;9.378;2023-07-09T08:41:44;29.80;99.90
28177;DHT22;15461;41.652;9.378;2023-07-09T08:47:26;30.20;99.90
28177;DHT22;15461;41.652;9.378;2023-07-09T08:49:58;30.40;99.90
28177;DHT22;15461;41.652;9.378;2023-07-09T08:52:36;30.40;99.90
28177;DHT22;15461;41.652;9.378;2023-07-09T08:55:15;30.50;99.90
28177;DHT22;15461;41.652;9.378;2023-07-09T08:57:48;30.40;99.90
28177;DHT22;15461;41.652;9.378;2023-07-09T09:00:29;30.50;99.90
28177;DHT22;15461;41.652;9.378;2023-07-09T09:02:59;30.70;99.90
28177;DHT22;15461;41.652;9.378;2023-07-09T09:05:25;30.70;99.90
28177;DHT22;15461;41.652;9.378;2023-07-09T09:08:38;30.70;99.90
28177;DHT22;15461;41.652;9.378;2023-07-09T09:10:48;30.60;99.90
28177;DHT22;15461;41.652;9.378;2023-07-09T09:13:22;30.50;99.90
28177;DHT22;15461;41.652;9.378;2023-07-09T09:15:49;30.50;99.90
28177;DHT22;15461;41.652;9.378;2023-07-09T09:21:22;30.70;99.90
28177;DHT22;15461;41.652;9.378;2023-07-09T09:23:54;30.80;99.90
28177;DHT22;15461;41.652;9.378;2023-07-09T09:28:50;30.40;99.90
28177;DHT22;15461;41.652;9.378;2023-07-09T09:31:17;30.50;99.90
28177;DHT22;15461;41.652;9.378;2023-07-09T09:33:45;30.60;99.90
28177;DHT22;15461;41.652;9.378;2023-07-09T09:36:22;30.60;99.90
28177;DHT22;15461;41.652;9.378;2023-07-09T09:38:49;30.80;99.90
28177;DHT22;15461;41.652;9.378;2023-07-09T09:41:18;30.80;99.90
28177;DHT22;15461;41.652;9.378;2023-07-09T09:43:46;30.90;99.90
28177;DHT22;15461;41.652;9.378;2023-07-09T09:46:24;30.80;99.90
28177;DHT22;15461;41.652;9.378;2023-07-09T09:48:53;30.80;99.90
28177;DHT22;15461;41.652;9.378;2023-07-09T09:51:20;30.80;99.90
28177;DHT22;15461;41.652;9.378;2023-07-09T09:53:51;30.90;99.90
28177;DHT22;15461;41.652;9.378;2023-07-09T09:56:35;31.00;99.90
28177;DHT22;15461;41.652;9.378;2023-07-09T09:59:03;31.30;99.90
28177;DHT22;15461;41.652;9.378;2023-07-09T10:01:32;31.10;99.90
28177;DHT22;15461;41.652;9.378;2023-07-09T10:04:01;31.20;99.90
28177;DHT22;15461;41.652;9.378;2023-07-09T10:09:41;30.70;99.90
28177;DHT22;15461;41.652;9.378;2023-07-09T10:18:10;30.50;99.90
28177;DHT22;15461;41.652;9.378;2023-07-09T10:20:50;30.40;99.90
28177;DHT22;15461;41.652;9.378;2023-07-09T10:26:53;30.80;99.90
28177;DHT22;15461;41.652;9.378;2023-07-09T10:32:01;31.30;99.90
28177;DHT22;15461;41.652;9.378;2023-07-09T10:34:55;31.10;99.90
28177;DHT22;15461;41.652;9.378;2023-07-09T10:37:43;31.10;99.90
28177;DHT22;15461;41.652;9.378;2023-07-09T10:40:16;31.20;99.90
28177;DHT22;15461;41.652;9.378;2023-07-09T10:42:48;31.30;99.90
28177;DHT22;15461;41.652;9.378;2023-07-09T10:45:30;31.30;99.90
28177;DHT22;15461;41.652;9.378;2023-07-09T10:48:31;31.00;99.90
28177;DHT22;15461;41.652;9.378;2023-07-09T10:50:57;30.90;99.90
28177;DHT22;15461;41.652;9.378;2023-07-09T10:53:36;30.90;99.90
28177;DHT22;15461;41.652;9.378;2023-07-09T10:56:20;30.90;99.90
28177;DHT22;15461;41.652;9.378;2023-07-09T11:02:21;30.90;99.90
28177;DHT22;15461;41.652;9.378;2023-07-09T11:04:55;30.80;99.90
28177;DHT22;15461;41.652;9.378;2023-07-09T11:07:29;30.80;99.90
28177;DHT22;15461;41.652;9.378;2023-07-09T11:09:57;31.00;99.90
28177;DHT22;15461;41.652;9.378;2023-07-09T11:12:34;31.10;99.90
28177;DHT22;15461;41.652;9.378;2023-07-09T11:15:22;31.30;99.90
28177;DHT22;15461;41.652;9.378;2023-07-09T11:17:49;31.40;99.90
28177;DHT22;15461;41.652;9.378;2023-07-09T11:20:27;31.40;99.90
28177;DHT22;15461;41.652;9.378;2023-07-09T11:23:22;31.30;99.90
28177;DHT22;15461;41.652;9.378;2023-07-09T11:26:02;31.40;99.90
28177;DHT22;15461;41.652;9.378;2023-07-09T11:28:38;31.40;99.90
28177;DHT22;15461;41.652;9.378;2023-07-09T11:31:07;31.40;99.90
28177;DHT22;15461;41.652;9.378;2023-07-09T11:33:33;31.10;99.90
28177;DHT22;15461;41.652;9.378;2023-07-09T11:36:13;31.00;99.90
28177;DHT22;15461;41.652;9.378;2023-07-09T11:38:45;31.00;99.90
28177;DHT22;15461;41.652;9.378;2023-07-09T11:46:40;31.20;99.90
28177;DHT22;15461;41.652;9.378;2023-07-09T11:49:09;31.10;99.90
28177;DHT22;15461;41.652;9.378;2023-07-09T11:51:43;30.90;99.90
28177;DHT22;15461;41.652;9.378;2023-07-09T11:54:13;31.00;99.90
28177;DHT22;15461;41.652;9.378;2023-07-09T11:56:39;31.20;99.90
28177;DHT22;15461;41.652;9.378;2023-07-09T11:59:05;31.20;99.90
28177;DHT22;15461;41.652;9.378;2023-07-09T12:01:45;31.10;99.90
28177;DHT22;15461;41.652;9.378;2023-07-09T12:04:17;31.00;99.90
28177;DHT22;15461;41.652;9.378;2023-07-09T12:06:44;31.10;99.90
28177;DHT22;15461;41.652;9.378;2023-07-09T12:09:16;31.30;99.90
28177;DHT22;15461;41.652;9.378;2023-07-09T12:11:44;31.30;99.90
28177;DHT22;15461;41.652;9.378;2023-07-09T12:14:15;31.30;99.90
28177;DHT22;15461;41.652;9.378;2023-07-09T12:16:49;31.30;99.90
28177;DHT22;15461;41.652;9.378;2023-07-09T12:19:20;31.30;99.90
28177;DHT22;15461;41.652;9.378;2023-07-09T12:21:51;31.20;99.90
28177;DHT22;15461;41.652;9.378;2023-07-09T12:24:22;31.20;99.90
28177;DHT22;15461;41.652;9.378;2023-07-09T12:29:34;31.30;99.90
28177;DHT22;15461;41.652;9.378;2023-07-09T12:32:05;31.30;99.90
28177;DHT22;15461;41.652;9.378;2023-07-09T12:34:35;31.30;99.90
28177;DHT22;15461;41.652;9.378;2023-07-09T12:37:01;31.50;99.90
28177;DHT22;15461;41.652;9.378;2023-07-09T12:39:29;31.60;99.90
28177;DHT22;15461;41.652;9.378;2023-07-09T12:42:00;31.40;99.90
28177;DHT22;15461;41.652;9.378;2023-07-09T12:44:36;31.30;99.90
28177;DHT22;15461;41.652;9.378;2023-07-09T12:47:02;31.20;99.90
28177;DHT22;15461;41.652;9.378;2023-07-09T12:49:30;31.10;99.90
28177;DHT22;15461;41.652;9.378;2023-07-09T12:52:02;31.10;99.90
28177;DHT22;15461;41.652;9.378;2023-07-09T12:54:29;31.00;99.90
28177;DHT22;15461;41.652;9.378;2023-07-09T12:56:56;31.10;99.90
28177;DHT22;15461;41.652;9.378;2023-07-09T12:59:26;31.30;99.90
28177;DHT22;15461;41.652;9.378;2023-07-09T13:04:37;31.40;99.90
28177;DHT22;15461;41.652;9.378;2023-07-09T13:07:03;31.30;99.90
28177;DHT22;15461;41.652;9.378;2023-07-09T13:09:29;31.10;99.90
28177;DHT22;15461;41.652;9.378;2023-07-09T13:11:57;31.00;99.90
28177;DHT22;15461;41.652;9.378;2023-07-09T13:14:26;31.10;99.90
28177;DHT22;15461;41.652;9.378;2023-07-09T13:16:52;31.00;99.90
28177;DHT22;15461;41.652;9.378;2023-07-09T13:19:19;30.90;99.90
28177;DHT22;15461;41.652;9.378;2023-07-09T13:21:45;30.90;99.90
28177;DHT22;15461;41.652;9.378;2023-07-09T13:24:23;30.80;99.90
28177;DHT22;15461;41.652;9.378;2023-07-09T13:26:50;30.80;99.90
28177;DHT22;15461;41.652;9.378;2023-07-09T13:29:18;30.50;99.90
28177;DHT22;15461;41.652;9.378;2023-07-09T13:31:44;30.60;99.90
28177;DHT22;15461;41.652;9.378;2023-07-09T13:34:24;30.60;99.90
28177;DHT22;15461;41.652;9.378;2023-07-09T13:36:52;30.60;99.90
28177;DHT22;15461;41.652;9.378;2023-07-09T13:39:20;30.60;99.90
28177;DHT22;15461;41.652;9.378;2023-07-09T13:41:48;30.70;99.90
28177;DHT22;15461;41.652;9.378;2023-07-09T13:46:41;30.90;99.90
28177;DHT22;15461;41.652;9.378;2023-07-09T13:49:19;31.10;99.90
28177;DHT22;15461;41.652;9.378;2023-07-09T13:51:47;31.00;99.90
28177;DHT22;15461;41.652;9.378;2023-07-09T13:56:44;30.90;99.90
28177;DHT22;15461;41.652;9.378;2023-07-09T13:59:17;30.80;99.90
28177;DHT22;15461;41.652;9.378;2023-07-09T14:01:44;31.00;99.90
28177;DHT22;15461;41.652;9.378;2023-07-09T14:04:15;31.20;99.90
28177;DHT22;15461;41.652;9.378;2023-07-09T14:06:43;31.30;99.90
28177;DHT22;15461;41.652;9.378;2023-07-09T14:09:10;31.20;99.90
28177;DHT22;15461;41.652;9.378;2023-07-09T14:11:46;31.10;99.90
28177;DHT22;15461;41.652;9.378;2023-07-09T14:14:19;30.90;99.90
28177;DHT22;15461;41.652;9.378;2023-07-09T14:16:47;30.80;99.90
28177;DHT22;15461;41.652;9.378;2023-07-09T14:19:18;30.80;99.90
28177;DHT22;15461;41.652;9.378;2023-07-09T14:21:46;30.90;99.90
28177;DHT22;15461;41.652;9.378;2023-07-09T14:24:23;30.90;99.90
28177;DHT22;15461;41.652;9.378;2023-07-09T14:26:51;30.80;99.90
28177;DHT22;15461;41.652;9.378;2023-07-09T14:29:17;30.80;99.90
28177;DHT22;15461;41.652;9.378;2023-07-09T14:31:45;30.70;99.90
28177;DHT22;15461;41.652;9.378;2023-07-09T14:36:47;30.70;99.90
28177;DHT22;15461;41.652;9.378;2023-07-09T14:39:13;30.50;99.90
28177;DHT22;15461;41.652;9.378;2023-07-09T14:41:40;30.50;99.90
28177;DHT22;15461;41.652;9.378;2023-07-09T14:44:28;30.50;99.90
28177;DHT22;15461;41.652;9.378;2023-07-09T14:46:56;30.60;99.90
28177;DHT22;15461;41.652;9.378;2023-07-09T14:49:23;30.60;99.90
28177;DHT22;15461;41.652;9.378;2023-07-09T14:51:50;30.40;99.90
28177;DHT22;15461;41.652;9.378;2023-07-09T14:54:25;30.40;99.90
28177;DHT22;15461;41.652;9.378;2023-07-09T14:56:52;30.50;99.90
28177;DHT22;15461;41.652;9.378;2023-07-09T14:59:18;30.40;99.90
28177;DHT22;15461;41.652;9.378;2023-07-09T15:01:45;30.30;99.90
28177;DHT22;15461;41.652;9.378;2023-07-09T15:04:32;30.40;99.90
28177;DHT22;15461;41.652;9.378;2023-07-09T15:06:59;30.50;99.90
28177;DHT22;15461;41.652;9.378;2023-07-09T15:09:26;30.50;99.90
28177;DHT22;15461;41.652;9.378;2023-07-09T15:11:57;30.60;99.90
28177;DHT22;15461;41.652;9.378;2023-07-09T15:14:25;30.60;99.90
28177;DHT22;15461;41.652;9.378;2023-07-09T15:16:51;30.70;99.90
28177;DHT22;15461;41.652;9.378;2023-07-09T15:19:19;30.70;99.90
28177;DHT22;15461;41.652;9.378;2023-07-09T15:21:48;30.70;99.90
28177;DHT22;15461;41.652;9.378;2023-07-09T15:24:32;30.70;99.90
28177;DHT22;15461;41.652;9.378;2023-07-09T15:27:00;30.60;99.90
28177;DHT22;15461;41.652;9.378;2023-07-09T15:29:28;30.40;99.90
28177;DHT22;15461;41.652;9.378;2023-07-09T15:31:54;30.40;99.90
28177;DHT22;15461;41.652;9.378;2023-07-09T15:34:20;30.60;99.90
28177;DHT22;15461;41.652;9.378;2023-07-09T15:36:48;30.50;99.90
28177;DHT22;15461;41.652;9.378;2023-07-09T15:39:15;30.60;99.90
28177;DHT22;15461;41.652;9.378;2023-07-09T15:41:41;30.60;99.90
28177;DHT22;15461;41.652;9.378;2023-07-09T15:44:11;30.70;99.90
28177;DHT22;15461;41.652;9.378;2023-07-09T15:46:42;30.80;99.90
28177;DHT22;15461;41.652;9.378;2023-07-09T15:49:13;30.80;99.90
28177;DHT22;15461;41.652;9.378;2023-07-09T15:51:39;30.80;99.90
28177;DHT22;15461;41.652;9.378;2023-07-09T15:54:16;30.80;99.90
28177;DHT22;15461;41.652;9.378;2023-07-09T15:56:43;30.60;99.90
28177;DHT22;15461;41.652;9.378;2023-07-09T15:59:30;30.60;99.90
28177;DHT22;15461;41.652;9.378;2023-07-09T16:01:57;30.60;99.90
28177;DHT22;15461;41.652;9.378;2023-07-09T16:04:24;30.60;99.90
28177;DHT22;15461;41.652;9.378;2023-07-09T16:06:50;30.60;99.90
28177;DHT22;15461;41.652;9.378;2023-07-09T16:09:16;30.60;99.90
28177;DHT22;15461;41.652;9.378;2023-07-09T16:11:45;30.60;99.90
28177;DHT22;15461;41.652;9.378;2023-07-09T16:14:24;30.60;99.90
28177;DHT22;15461;41.652;9.378;2023-07-09T16:16:51;30.40;99.90
28177;DHT22;15461;41.652;9.378;2023-07-09T16:19:20;30.50;99.90
28177;DHT22;15461;41.652;9.378;2023-07-09T16:21:47;30.50;99.90
28177;DHT22;15461;41.652;9.378;2023-07-09T16:24:26;30.50;99.90
28177;DHT22;15461;41.652;9.378;2023-07-09T16:26:52;30.40;99.90
28177;DHT22;15461;41.652;9.378;2023-07-09T16:29:28;30.40;99.90
28177;DHT22;15461;41.652;9.378;2023-07-09T16:31:56;30.40;99.90
28177;DHT22;15461;41.652;9.378;2023-07-09T16:34:28;30.10;99.90